createdAt,value
2017-07-05T00:00:23.899Z,58.30
2017-07-05T00:02:49.909Z,58.30
2017-07-05T00:05:15.892Z,58.70
2017-07-05T00:07:42.929Z,58.90
2017-07-05T00:10:08.967Z,58.50
2017-07-05T00:12:34.981Z,58.50
2017-07-05T00:15:01.084Z,58.60
2017-07-05T00:17:27.052Z,58.80
2017-07-05T00:19:53.098Z,59.00
2017-07-05T00:22:20.672Z,59.20
2017-07-05T00:24:46.692Z,59.20
2017-07-05T00:27:12.762Z,59.10
2017-07-05T00:29:38.732Z,59.40
2017-07-05T00:32:05.677Z,60.00
2017-07-05T00:34:32.265Z,59.90
2017-07-05T00:36:58.319Z,60.30
2017-07-05T00:39:24.539Z,60.20
2017-07-05T00:41:50.811Z,60.40
2017-07-05T00:44:17.705Z,60.40
2017-07-05T00:46:45.198Z,60.80
2017-07-05T00:49:11.185Z,61.00
2017-07-05T00:51:37.219Z,61.00
2017-07-05T00:54:03.883Z,61.30
2017-07-05T00:56:30.731Z,61.40
2017-07-05T00:58:56.745Z,61.50
2017-07-05T01:01:22.756Z,61.40
2017-07-05T01:03:48.937Z,61.30
2017-07-05T01:06:15.835Z,61.00
2017-07-05T01:08:41.866Z,60.80
2017-07-05T01:11:07.857Z,60.50
2017-07-05T01:13:34.632Z,60.10
2017-07-05T01:16:00.650Z,59.90
2017-07-05T01:18:26.902Z,60.40
2017-07-05T01:20:52.843Z,60.30
2017-07-05T01:23:18.945Z,60.40
2017-07-05T01:25:44.954Z,60.80
2017-07-05T01:28:10.936Z,61.10
2017-07-05T01:30:36.898Z,61.20
2017-07-05T01:33:02.901Z,61.10
2017-07-05T01:35:29.740Z,61.10
2017-07-05T01:37:55.873Z,61.10
2017-07-05T01:40:21.839Z,61.10
2017-07-05T01:42:51.193Z,61.20
2017-07-05T01:45:17.184Z,61.60
2017-07-05T01:47:44.124Z,62.00
2017-07-05T01:50:10.083Z,62.00
2017-07-05T01:52:36.315Z,62.10
2017-07-05T01:55:02.344Z,62.50
2017-07-05T01:57:29.909Z,62.60
2017-07-05T01:59:58.972Z,62.50
2017-07-05T02:02:25.008Z,62.70
2017-07-05T02:04:50.947Z,62.70
2017-07-05T02:07:17.872Z,62.70
2017-07-05T02:09:44.653Z,62.30
2017-07-05T02:12:10.628Z,62.70
2017-07-05T02:14:36.713Z,62.80
2017-07-05T02:17:02.764Z,63.30
2017-07-05T02:19:29.513Z,63.20
2017-07-05T02:21:55.455Z,63.20
2017-07-05T02:26:53.867Z,62.90
2017-07-05T02:29:19.861Z,63.00
2017-07-05T02:31:45.885Z,63.10
2017-07-05T02:34:11.921Z,63.20
2017-07-05T02:36:38.210Z,63.40
2017-07-05T02:39:04.921Z,63.80
2017-07-05T02:41:30.911Z,63.90
2017-07-05T02:43:57.139Z,64.00
2017-07-05T02:46:23.429Z,65.00
2017-07-05T02:48:51.146Z,64.30
2017-07-05T02:51:17.143Z,64.60
2017-07-05T02:53:43.781Z,64.30
2017-07-05T02:56:09.777Z,64.30
2017-07-05T02:58:35.796Z,64.50
2017-07-05T03:01:01.818Z,64.70
2017-07-05T03:03:27.864Z,64.90
2017-07-05T03:05:53.881Z,65.70
2017-07-05T03:08:20.700Z,65.00
2017-07-05T03:10:46.723Z,65.20
2017-07-05T03:13:12.755Z,65.10
2017-07-05T03:15:38.866Z,65.20
2017-07-05T03:18:04.855Z,65.40
2017-07-05T03:20:30.820Z,65.30
2017-07-05T03:22:57.521Z,65.00
2017-07-05T03:25:23.476Z,65.00
2017-07-05T03:27:49.419Z,64.80
2017-07-05T03:30:18.293Z,65.10
2017-07-05T03:32:45.078Z,65.50
2017-07-05T03:35:11.062Z,65.80
2017-07-05T03:37:37.819Z,65.80
2017-07-05T03:40:03.836Z,65.80
2017-07-05T03:42:30.044Z,66.00
2017-07-05T03:44:56.065Z,66.50
2017-07-05T03:47:22.044Z,67.00
2017-07-05T03:49:48.011Z,67.00
2017-07-05T03:52:14.196Z,66.80
2017-07-05T03:54:40.216Z,66.60
2017-07-05T03:57:06.182Z,66.60
2017-07-05T03:59:32.165Z,66.80
2017-07-05T04:01:58.152Z,67.20
2017-07-05T04:04:24.172Z,67.50
2017-07-05T04:06:52.037Z,67.20
2017-07-05T04:09:18.977Z,66.90
2017-07-05T04:11:45.316Z,66.60
2017-07-05T04:14:11.526Z,66.20
2017-07-05T04:16:37.547Z,66.40
2017-07-05T04:19:03.601Z,66.20
2017-07-05T04:21:29.614Z,66.30
2017-07-05T04:23:55.637Z,66.00
2017-07-05T04:26:21.653Z,66.70
2017-07-05T04:28:48.592Z,67.40
2017-07-05T04:31:14.600Z,67.80
2017-07-05T04:33:41.350Z,67.60
2017-07-05T04:36:07.478Z,67.20
2017-07-05T04:38:33.452Z,66.60
2017-07-05T04:40:59.447Z,66.60
2017-07-05T04:43:26.061Z,66.40
2017-07-05T04:45:52.908Z,65.80
2017-07-05T04:48:18.912Z,65.40
2017-07-05T04:50:44.929Z,65.40
2017-07-05T04:53:11.077Z,65.00
2017-07-05T04:55:38.068Z,64.40
2017-07-05T04:58:04.836Z,64.30
2017-07-05T05:00:30.826Z,63.70
2017-07-05T05:02:56.907Z,63.30
2017-07-05T05:05:23.217Z,63.90
2017-07-05T05:07:49.184Z,64.10
2017-07-05T05:10:16.700Z,64.00
2017-07-05T05:12:42.746Z,63.90
2017-07-05T05:15:09.392Z,64.00
2017-07-05T05:17:35.403Z,64.00
2017-07-05T05:20:01.339Z,64.40
2017-07-05T05:22:27.535Z,64.90
2017-07-05T05:24:53.589Z,65.20
2017-07-05T05:27:19.651Z,64.00
2017-07-05T05:29:45.608Z,63.60
2017-07-05T05:32:11.639Z,63.40
2017-07-05T05:34:37.666Z,63.20
2017-07-05T05:37:04.323Z,63.20
2017-07-05T05:39:32.016Z,63.20
2017-07-05T05:41:58.065Z,63.60
2017-07-05T05:44:26.061Z,63.10
2017-07-05T05:46:52.052Z,62.50
2017-07-05T05:49:18.421Z,62.70
2017-07-05T05:51:44.396Z,62.40
2017-07-05T05:54:10.376Z,62.20
2017-07-05T05:56:36.353Z,63.00
2017-07-05T05:59:02.473Z,63.30
2017-07-05T06:01:29.458Z,62.90
2017-07-05T06:03:55.419Z,62.70
2017-07-05T06:06:22.114Z,63.30
2017-07-05T06:08:48.655Z,63.30
2017-07-05T06:11:14.668Z,63.50
2017-07-05T06:13:40.657Z,63.40
2017-07-05T06:16:06.611Z,63.20
2017-07-05T06:18:32.565Z,62.80
2017-07-05T06:20:58.528Z,62.30
2017-07-05T06:23:24.503Z,61.40
2017-07-05T06:25:52.173Z,61.20
2017-07-05T06:28:18.766Z,61.90
2017-07-05T06:30:47.230Z,61.10
2017-07-05T06:33:14.272Z,60.90
2017-07-05T06:35:40.632Z,60.50
2017-07-05T06:38:06.678Z,60.20
2017-07-05T06:40:32.628Z,60.20
2017-07-05T06:42:58.576Z,60.40
2017-07-05T06:45:24.633Z,60.80
2017-07-05T06:47:50.773Z,59.90
2017-07-05T06:50:16.800Z,59.30
2017-07-05T06:52:43.577Z,59.30
2017-07-05T06:55:10.849Z,59.50
2017-07-05T06:57:37.675Z,59.10
2017-07-05T07:00:03.671Z,59.00
2017-07-05T07:02:29.614Z,58.70
2017-07-05T07:04:55.548Z,58.20
2017-07-05T07:07:21.540Z,58.00
2017-07-05T07:09:47.568Z,57.90
2017-07-05T07:12:13.703Z,57.70
2017-07-05T07:14:39.711Z,57.70
2017-07-05T07:17:05.729Z,57.50
2017-07-05T07:19:31.691Z,57.30
2017-07-05T07:21:57.659Z,57.30
2017-07-05T07:24:24.408Z,57.50
2017-07-05T07:26:50.444Z,57.20
2017-07-05T07:29:16.411Z,57.10
2017-07-05T07:31:42.390Z,57.10
2017-07-05T07:34:08.417Z,57.10
2017-07-05T07:39:03.989Z,56.60
2017-07-05T07:41:31.216Z,56.50
2017-07-05T07:43:58.339Z,56.30
2017-07-05T07:46:25.726Z,55.80
2017-07-05T07:48:51.800Z,56.00
2017-07-05T07:51:18.108Z,56.50
2017-07-05T07:53:44.899Z,55.70
2017-07-05T07:56:10.939Z,55.50
2017-07-05T07:58:37.252Z,55.30
2017-07-05T08:01:03.559Z,55.90
2017-07-05T08:03:29.607Z,55.70
2017-07-05T08:05:55.550Z,55.80
2017-07-05T08:08:21.546Z,55.10
2017-07-05T08:10:47.562Z,55.10
2017-07-05T08:13:13.503Z,55.50
2017-07-05T08:15:39.797Z,55.10
2017-07-05T08:18:06.626Z,55.00
2017-07-05T08:20:32.810Z,54.50
2017-07-05T08:22:58.781Z,54.30
2017-07-05T08:25:24.793Z,54.50
2017-07-05T08:27:50.728Z,54.30
2017-07-05T08:30:16.650Z,53.70
2017-07-05T08:32:42.640Z,53.60
2017-07-05T08:35:08.684Z,52.90
2017-07-05T08:37:34.645Z,52.70
2017-07-05T08:40:00.607Z,52.50
2017-07-05T08:42:26.816Z,52.20
2017-07-05T08:44:52.791Z,52.30
2017-07-05T08:47:19.087Z,52.50
2017-07-05T08:49:45.148Z,52.10
2017-07-05T08:52:11.113Z,51.10
2017-07-05T08:54:37.073Z,50.80
2017-07-05T08:57:03.049Z,51.50
2017-07-05T08:59:29.004Z,51.90
2017-07-05T09:01:55.761Z,49.40
2017-07-05T09:04:21.786Z,49.40
2017-07-05T09:06:47.758Z,48.80
2017-07-05T09:09:13.756Z,49.00
2017-07-05T09:11:40.072Z,49.30
2017-07-05T09:14:06.026Z,49.10
2017-07-05T09:16:32.017Z,48.60
2017-07-05T09:18:59.072Z,46.90
2017-07-05T09:21:25.058Z,46.30
2017-07-05T09:23:51.774Z,48.00
2017-07-05T09:26:17.759Z,48.00
2017-07-05T09:28:43.797Z,47.40
2017-07-05T09:31:09.744Z,46.40
2017-07-05T09:33:35.740Z,46.70
2017-07-05T09:36:01.708Z,47.60
2017-07-05T09:38:27.679Z,47.10
2017-07-05T09:40:54.396Z,47.20
2017-07-05T09:43:20.347Z,46.20
2017-07-05T09:45:47.356Z,46.50
2017-07-05T09:48:13.347Z,46.20
2017-07-05T09:50:39.352Z,45.80
2017-07-05T09:53:05.368Z,46.20
2017-07-05T09:55:32.212Z,45.90
2017-07-05T09:57:58.227Z,45.70
2017-07-05T10:00:24.264Z,45.20
2017-07-05T10:02:50.130Z,45.90
2017-07-05T10:05:16.112Z,46.20
2017-07-05T10:07:42.977Z,45.60
2017-07-05T10:10:09.780Z,46.20
2017-07-05T10:12:35.747Z,45.10
2017-07-05T10:15:02.646Z,45.10
2017-07-05T10:17:28.607Z,44.50
2017-07-05T10:19:54.663Z,43.90
2017-07-05T10:22:20.667Z,43.10
2017-07-05T10:24:46.618Z,43.70
2017-07-05T10:27:12.612Z,44.20
2017-07-05T10:29:38.826Z,43.70
2017-07-05T10:32:04.860Z,43.50
2017-07-05T10:34:30.891Z,43.40
2017-07-05T10:36:56.872Z,43.50
2017-07-05T10:39:23.593Z,42.70
2017-07-05T10:41:49.694Z,42.60
2017-07-05T10:44:15.726Z,42.10
2017-07-05T10:46:41.697Z,41.80
2017-07-05T10:49:08.272Z,41.20
2017-07-05T10:51:34.833Z,40.50
2017-07-05T10:54:00.869Z,39.70
2017-07-05T10:56:27.647Z,40.90
2017-07-05T10:58:54.127Z,40.60
2017-07-05T11:01:20.577Z,40.90
2017-07-05T11:03:46.618Z,41.20
2017-07-05T11:06:12.643Z,41.20
2017-07-05T11:08:38.937Z,40.80
2017-07-05T11:11:05.977Z,40.50
2017-07-05T11:13:32.024Z,40.50
2017-07-05T11:15:58.043Z,40.40
2017-07-05T11:18:25.041Z,40.60
2017-07-05T11:20:51.152Z,40.60
2017-07-05T11:23:17.146Z,39.70
2017-07-05T11:25:43.087Z,36.50
2017-07-05T11:28:09.070Z,37.50
2017-07-05T11:30:35.216Z,34.70
2017-07-05T11:33:01.186Z,33.30
2017-07-05T11:35:27.137Z,33.40
2017-07-05T11:37:53.072Z,33.80
2017-07-05T11:40:20.221Z,33.70
2017-07-05T11:42:46.210Z,33.80
2017-07-05T11:45:12.332Z,32.00
2017-07-05T11:47:38.301Z,30.90
2017-07-05T11:50:04.240Z,30.40
2017-07-05T11:52:30.206Z,31.50
2017-07-05T11:54:56.163Z,31.30
2017-07-05T11:57:22.130Z,31.70
2017-07-05T11:59:48.123Z,31.00
2017-07-05T12:02:14.091Z,30.90
2017-07-05T12:04:40.058Z,30.70
2017-07-05T12:07:06.019Z,31.50
2017-07-05T12:09:32.026Z,33.10
2017-07-05T12:11:58.586Z,33.30
2017-07-05T12:14:24.777Z,32.40
2017-07-05T12:16:50.728Z,32.60
2017-07-05T12:19:16.641Z,31.70
2017-07-05T12:21:42.624Z,32.40
2017-07-05T12:24:08.603Z,32.20
2017-07-05T12:26:34.991Z,32.10
2017-07-05T12:29:00.960Z,32.50
2017-07-05T12:31:26.860Z,32.00
2017-07-05T12:33:53.520Z,31.10
2017-07-05T12:36:19.492Z,29.60
2017-07-05T12:38:45.461Z,29.10
2017-07-05T12:41:11.405Z,29.10
2017-07-05T12:43:38.119Z,30.30
2017-07-05T12:46:04.156Z,30.20
2017-07-05T12:48:30.106Z,30.10
2017-07-05T12:50:56.221Z,29.80
2017-07-05T12:53:23.038Z,29.20
2017-07-05T12:55:49.076Z,29.00
2017-07-05T12:58:15.505Z,28.60
2017-07-05T13:00:42.151Z,27.60
2017-07-05T13:03:09.090Z,27.70
2017-07-05T13:05:35.340Z,27.80
2017-07-05T13:08:01.305Z,28.20
2017-07-05T13:12:59.010Z,28.50
2017-07-05T13:15:25.248Z,28.60
2017-07-05T13:17:51.495Z,28.30
2017-07-05T13:20:19.087Z,27.70
2017-07-05T13:22:45.068Z,28.10
2017-07-05T13:25:11.056Z,28.50
2017-07-05T13:27:38.555Z,28.60
2017-07-05T13:30:04.663Z,28.70
2017-07-05T13:32:30.674Z,28.70
2017-07-05T13:34:57.237Z,28.50
2017-07-05T13:37:26.783Z,28.60
2017-07-05T13:39:53.897Z,28.50
2017-07-05T13:42:22.200Z,28.70
2017-07-05T13:44:51.244Z,28.60
2017-07-05T13:47:17.547Z,28.40
2017-07-05T13:49:44.486Z,28.20
2017-07-05T13:52:10.673Z,28.80
2017-07-05T13:54:36.692Z,29.00
2017-07-05T13:57:02.685Z,28.80
2017-07-05T13:59:29.454Z,28.40
2017-07-05T14:01:55.448Z,28.60
2017-07-05T14:04:27.172Z,28.60
2017-07-05T14:06:53.151Z,28.60
2017-07-05T14:09:19.179Z,28.90
2017-07-05T14:11:46.119Z,29.10
2017-07-05T14:14:12.136Z,28.60
2017-07-05T14:16:38.159Z,28.50
2017-07-05T14:19:04.820Z,28.50
2017-07-05T14:21:30.791Z,28.90
2017-07-05T14:23:56.809Z,28.30
2017-07-05T14:26:23.579Z,28.10
2017-07-05T14:28:49.793Z,27.70
2017-07-05T14:31:16.035Z,27.80
2017-07-05T14:36:12.986Z,27.90
2017-07-05T14:38:38.987Z,27.70
2017-07-05T14:41:05.318Z,26.70
2017-07-05T14:43:31.498Z,27.10
2017-07-05T14:45:58.229Z,27.20
2017-07-05T14:48:24.380Z,26.80
2017-07-05T14:50:51.157Z,26.70
2017-07-05T14:53:17.132Z,26.80
2017-07-05T14:55:44.596Z,27.30
2017-07-05T14:58:10.886Z,26.80
2017-07-05T15:00:36.871Z,27.30
2017-07-05T15:03:15.212Z,27.50
2017-07-05T15:05:44.543Z,26.40
2017-07-05T15:08:10.574Z,26.40
2017-07-05T15:10:36.675Z,26.50
2017-07-05T15:13:06.629Z,26.90
2017-07-05T15:15:32.591Z,26.60
2017-07-05T15:17:58.625Z,26.80
2017-07-05T15:20:28.112Z,26.80
2017-07-05T15:22:54.901Z,26.80
2017-07-05T15:25:20.882Z,26.00
2017-07-05T15:27:46.870Z,26.20
2017-07-05T15:30:16.053Z,26.40
2017-07-05T15:32:46.074Z,26.60
2017-07-05T15:35:12.851Z,26.50
2017-07-05T15:37:39.678Z,26.50
2017-07-05T15:40:06.202Z,26.00
2017-07-05T15:45:04.377Z,26.30
2017-07-05T15:47:30.475Z,26.60
2017-07-05T15:49:56.701Z,26.90
2017-07-05T15:52:23.078Z,27.00
2017-07-05T15:54:50.821Z,26.60
2017-07-05T15:57:17.039Z,26.60
2017-07-05T15:59:43.031Z,26.30
2017-07-05T16:02:10.876Z,26.50
2017-07-05T16:04:39.290Z,26.50
2017-07-05T16:07:06.842Z,26.10
2017-07-05T16:09:32.865Z,26.10
2017-07-05T16:11:59.288Z,26.10
2017-07-05T16:14:29.048Z,26.10
2017-07-05T16:16:55.678Z,25.80
2017-07-05T16:19:21.996Z,25.70
2017-07-05T16:24:31.849Z,25.40
2017-07-05T16:26:57.908Z,25.30
2017-07-05T16:29:23.945Z,25.40
2017-07-05T16:31:49.956Z,25.50
2017-07-05T16:34:15.939Z,26.10
2017-07-05T16:36:41.943Z,26.50
2017-07-05T16:39:09.006Z,26.20
2017-07-05T16:41:35.003Z,25.80
2017-07-05T16:44:02.185Z,25.10
2017-07-05T16:46:28.801Z,25.40
2017-07-05T16:48:54.905Z,25.40
2017-07-05T16:51:22.487Z,25.90
2017-07-05T16:53:48.496Z,25.80
2017-07-05T16:56:15.468Z,26.00
2017-07-05T16:58:41.440Z,26.40
2017-07-05T17:01:07.408Z,25.80
2017-07-05T17:03:33.537Z,25.20
2017-07-05T17:06:00.071Z,25.30
2017-07-05T17:08:27.200Z,26.10
2017-07-05T17:10:53.192Z,26.70
2017-07-05T17:13:20.255Z,27.30
2017-07-05T17:15:48.489Z,27.30
2017-07-05T17:18:14.462Z,27.40
2017-07-05T17:20:40.428Z,27.80
2017-07-05T17:23:08.127Z,28.40
2017-07-05T17:25:34.064Z,29.00
2017-07-05T17:28:00.046Z,29.30
2017-07-05T17:30:26.239Z,29.10
2017-07-05T17:32:52.245Z,29.00
2017-07-05T17:35:18.206Z,29.00
2017-07-05T17:37:45.013Z,28.90
2017-07-05T17:40:10.996Z,28.80
2017-07-05T17:42:36.964Z,28.90
2017-07-05T17:45:03.019Z,28.40
2017-07-05T17:47:29.101Z,27.90
2017-07-05T17:49:55.045Z,28.10
2017-07-05T17:52:21.048Z,28.30
2017-07-05T17:54:47.077Z,28.60
2017-07-05T17:57:16.268Z,29.00
2017-07-05T17:59:42.445Z,29.00
2017-07-05T18:02:08.431Z,28.70
2017-07-05T18:04:34.946Z,29.00
2017-07-05T18:07:01.734Z,29.40
2017-07-05T18:11:59.302Z,30.60
2017-07-05T18:16:57.650Z,31.60
2017-07-05T18:19:23.580Z,32.20
2017-07-05T18:21:50.440Z,32.40
2017-07-05T18:24:16.395Z,32.80
2017-07-05T18:26:42.403Z,32.50
2017-07-05T18:29:14.739Z,32.70
2017-07-05T18:31:40.908Z,33.00
2017-07-05T18:34:07.847Z,33.00
2017-07-05T18:36:34.042Z,32.70
2017-07-05T18:39:00.175Z,32.70
2017-07-05T18:41:26.209Z,32.50
2017-07-05T18:43:52.369Z,32.30
2017-07-05T18:46:19.054Z,32.10
2017-07-05T18:48:46.305Z,31.70
2017-07-05T18:51:13.078Z,31.40
2017-07-05T18:53:39.929Z,31.30
2017-07-05T18:56:05.985Z,31.60
2017-07-05T18:58:32.711Z,32.00
2017-07-05T19:00:58.948Z,32.10
2017-07-05T19:03:25.978Z,31.90
2017-07-05T19:05:52.005Z,31.20
2017-07-05T19:08:18.180Z,31.00
2017-07-05T19:10:44.411Z,31.10
2017-07-05T19:13:12.251Z,31.90
2017-07-05T19:15:38.247Z,32.30
2017-07-05T19:18:04.277Z,33.20
2017-07-05T19:20:30.286Z,33.70
2017-07-05T19:22:58.046Z,34.10
2017-07-05T19:25:24.057Z,34.80
2017-07-05T19:27:51.040Z,35.30
2017-07-05T19:30:17.039Z,35.90
2017-07-05T19:32:43.017Z,36.60
2017-07-05T19:35:10.728Z,37.00
2017-07-05T19:37:36.709Z,37.40
2017-07-05T19:40:03.451Z,37.70
2017-07-05T19:45:02.210Z,38.40
2017-07-05T19:47:28.427Z,38.40
2017-07-05T19:49:54.666Z,38.70
2017-07-05T19:52:21.867Z,38.90
2017-07-05T19:54:49.117Z,39.10
2017-07-05T19:57:15.921Z,39.40
2017-07-05T19:59:42.597Z,39.50
2017-07-05T20:02:08.543Z,39.70
2017-07-05T20:04:34.584Z,39.80
2017-07-05T20:07:00.806Z,39.80
2017-07-05T20:09:26.846Z,39.90
2017-07-05T20:11:52.928Z,40.00
2017-07-05T20:14:18.938Z,40.10
2017-07-05T20:16:46.392Z,40.20
2017-07-05T20:19:12.373Z,40.10
2017-07-05T20:21:39.121Z,39.90
2017-07-05T20:24:06.341Z,39.80
2017-07-05T20:26:32.605Z,39.90
2017-07-05T20:28:59.071Z,40.00
2017-07-05T20:31:25.160Z,39.90
2017-07-05T20:33:51.368Z,40.10
2017-07-05T20:36:17.789Z,40.30
2017-07-05T20:38:43.839Z,40.70
2017-07-05T20:41:10.588Z,41.10
2017-07-05T20:43:36.547Z,41.20
2017-07-05T20:46:02.589Z,41.20
2017-07-05T20:48:28.925Z,41.60
2017-07-05T20:50:55.170Z,42.40
2017-07-05T20:53:21.135Z,43.00
2017-07-05T20:55:47.083Z,43.50
2017-07-05T20:58:13.119Z,43.90
2017-07-05T21:00:39.132Z,44.30
2017-07-05T21:03:05.748Z,44.80
2017-07-05T21:05:31.787Z,45.40
2017-07-05T21:07:57.846Z,46.00
2017-07-05T21:10:23.831Z,46.70
2017-07-05T21:12:49.845Z,47.10
2017-07-05T21:15:15.799Z,47.30
2017-07-05T21:17:41.789Z,47.30
2017-07-05T21:20:07.748Z,47.70
2017-07-05T21:22:35.843Z,48.00
2017-07-05T21:25:02.199Z,48.20
2017-07-05T21:27:28.234Z,48.80
2017-07-05T21:29:54.682Z,48.60
2017-07-05T21:32:20.738Z,49.00
2017-07-05T21:34:47.646Z,49.30
2017-07-05T21:37:14.478Z,49.70
2017-07-05T21:39:40.520Z,50.10
2017-07-05T21:42:06.736Z,50.30
2017-07-05T21:44:32.798Z,50.60
2017-07-05T21:47:00.560Z,50.40
2017-07-05T21:49:26.589Z,50.90
2017-07-05T21:51:53.078Z,50.90
2017-07-05T21:54:19.158Z,50.90
2017-07-05T21:56:45.324Z,51.20
2017-07-05T21:59:12.202Z,51.20
2017-07-05T22:01:40.828Z,51.50
2017-07-05T22:04:07.153Z,51.40
2017-07-05T22:06:33.957Z,51.60
2017-07-05T22:08:59.961Z,51.50
2017-07-05T22:11:25.962Z,51.50
2017-07-05T22:13:52.163Z,51.40
2017-07-05T22:16:18.261Z,51.50
2017-07-05T22:18:44.292Z,51.50
2017-07-05T22:21:10.228Z,51.50
2017-07-05T22:23:36.300Z,51.60
2017-07-05T22:26:02.309Z,51.70
2017-07-05T22:28:28.574Z,51.90
2017-07-05T22:30:55.111Z,51.80
2017-07-05T22:33:21.319Z,51.80
2017-07-05T22:35:47.417Z,51.90
2017-07-05T22:38:13.973Z,51.80
2017-07-05T22:40:40.512Z,51.90
2017-07-05T22:43:06.657Z,51.90
2017-07-05T22:45:33.247Z,52.00
2017-07-05T22:47:59.317Z,52.00
2017-07-05T22:50:26.488Z,51.90
2017-07-05T22:52:52.585Z,52.20
2017-07-05T22:55:18.592Z,52.40
2017-07-05T22:57:44.637Z,52.70
2017-07-05T23:00:11.637Z,52.90
2017-07-05T23:02:37.740Z,53.10
2017-07-05T23:05:04.436Z,53.10
2017-07-05T23:07:30.499Z,53.20
2017-07-05T23:09:57.150Z,53.20
2017-07-05T23:12:23.383Z,53.30
2017-07-05T23:14:49.398Z,53.60
2017-07-05T23:17:15.624Z,53.80
2017-07-05T23:19:41.776Z,54.00
2017-07-05T23:22:08.403Z,54.10
2017-07-05T23:24:35.590Z,54.20
2017-07-05T23:27:01.900Z,54.20
2017-07-05T23:29:27.900Z,54.20
2017-07-05T23:31:54.121Z,54.20
2017-07-05T23:34:20.083Z,54.10
2017-07-05T23:36:46.107Z,54.00
2017-07-05T23:39:12.245Z,54.10
2017-07-05T23:41:38.400Z,54.00
2017-07-05T23:44:04.667Z,54.10
2017-07-05T23:46:30.654Z,54.00
2017-07-05T23:48:56.684Z,54.10
2017-07-05T23:51:22.718Z,53.90
2017-07-05T23:53:48.688Z,53.90
2017-07-05T23:56:15.812Z,53.90
2017-07-05T23:58:41.849Z,54.00
